sensor_id;sensor_type;location;lat;lon;timestamp;P1;durP1;ratioP1;P2;durP2;ratioP2
44985;SDS011;30721;49.380;7.736;2023-12-29T00:01:54;7.70;;;4.68;;
44985;SDS011;30721;49.380;7.736;2023-12-29T00:04:19;8.35;;;5.88;;
44985;SDS011;30721;49.380;7.736;2023-12-29T00:06:45;6.85;;;5.22;;
44985;SDS011;30721;49.380;7.736;2023-12-29T00:09:11;6.25;;;5.03;;
44985;SDS011;30721;49.380;7.736;2023-12-29T00:11:37;6.32;;;4.97;;
44985;SDS011;30721;49.380;7.736;2023-12-29T00:14:03;7.75;;;5.43;;
44985;SDS011;30721;49.380;7.736;2023-12-29T00:16:29;8.57;;;5.68;;
44985;SDS011;30721;49.380;7.736;2023-12-29T00:18:54;6.15;;;4.65;;
44985;SDS011;30721;49.380;7.736;2023-12-29T00:21:19;7.05;;;5.03;;
44985;SDS011;30721;49.380;7.736;2023-12-29T00:23:45;6.53;;;5.45;;
44985;SDS011;30721;49.380;7.736;2023-12-29T00:26:10;6.43;;;5.30;;
44985;SDS011;30721;49.380;7.736;2023-12-29T00:28:35;7.43;;;4.88;;
44985;SDS011;30721;49.380;7.736;2023-12-29T00:31:05;7.57;;;5.50;;
44985;SDS011;30721;49.380;7.736;2023-12-29T00:33:31;8.68;;;5.88;;
44985;SDS011;30721;49.380;7.736;2023-12-29T00:35:57;7.25;;;6.18;;
44985;SDS011;30721;49.380;7.736;2023-12-29T00:38:22;8.15;;;6.00;;
44985;SDS011;30721;49.380;7.736;2023-12-29T00:40:48;7.57;;;5.63;;
44985;SDS011;30721;49.380;7.736;2023-12-29T00:43:13;8.68;;;6.15;;
44985;SDS011;30721;49.380;7.736;2023-12-29T00:45:39;9.50;;;6.57;;
44985;SDS011;30721;49.380;7.736;2023-12-29T00:48:04;8.07;;;5.93;;
44985;SDS011;30721;49.380;7.736;2023-12-29T00:50:30;9.02;;;6.35;;
44985;SDS011;30721;49.380;7.736;2023-12-29T00:52:55;7.80;;;5.93;;
44985;SDS011;30721;49.380;7.736;2023-12-29T00:55:21;9.15;;;5.90;;
44985;SDS011;30721;49.380;7.736;2023-12-29T00:57:46;8.93;;;6.45;;
44985;SDS011;30721;49.380;7.736;2023-12-29T01:00:12;10.70;;;6.30;;
44985;SDS011;30721;49.380;7.736;2023-12-29T01:02:38;8.80;;;6.80;;
44985;SDS011;30721;49.380;7.736;2023-12-29T01:05:04;7.45;;;5.70;;
44985;SDS011;30721;49.380;7.736;2023-12-29T01:07:30;6.50;;;5.20;;
44985;SDS011;30721;49.380;7.736;2023-12-29T01:09:55;6.15;;;4.85;;
44985;SDS011;30721;49.380;7.736;2023-12-29T01:12:21;7.85;;;6.07;;
44985;SDS011;30721;49.380;7.736;2023-12-29T01:14:46;8.10;;;5.32;;
44985;SDS011;30721;49.380;7.736;2023-12-29T01:17:12;7.93;;;5.53;;
44985;SDS011;30721;49.380;7.736;2023-12-29T01:19:37;8.38;;;5.47;;
44985;SDS011;30721;49.380;7.736;2023-12-29T01:22:03;7.60;;;4.85;;
44985;SDS011;30721;49.380;7.736;2023-12-29T01:24:28;9.10;;;4.85;;
44985;SDS011;30721;49.380;7.736;2023-12-29T01:26:54;6.05;;;4.82;;
44985;SDS011;30721;49.380;7.736;2023-12-29T01:29:19;7.82;;;4.40;;
44985;SDS011;30721;49.380;7.736;2023-12-29T01:31:45;5.85;;;4.32;;
44985;SDS011;30721;49.380;7.736;2023-12-29T01:34:10;5.88;;;4.57;;
44985;SDS011;30721;49.380;7.736;2023-12-29T01:36:36;5.43;;;4.85;;
44985;SDS011;30721;49.380;7.736;2023-12-29T01:39:01;6.15;;;4.00;;
44985;SDS011;30721;49.380;7.736;2023-12-29T01:41:29;6.05;;;4.32;;
44985;SDS011;30721;49.380;7.736;2023-12-29T01:46:42;5.65;;;3.80;;
44985;SDS011;30721;49.380;7.736;2023-12-29T01:49:07;4.43;;;3.47;;
44985;SDS011;30721;49.380;7.736;2023-12-29T01:51:33;4.60;;;3.67;;
44985;SDS011;30721;49.380;7.736;2023-12-29T01:53:58;4.50;;;3.60;;
44985;SDS011;30721;49.380;7.736;2023-12-29T01:56:24;6.05;;;3.70;;
44985;SDS011;30721;49.380;7.736;2023-12-29T01:58:50;4.18;;;3.30;;
44985;SDS011;30721;49.380;7.736;2023-12-29T02:01:17;6.10;;;3.40;;
44985;SDS011;30721;49.380;7.736;2023-12-29T02:03:43;4.72;;;2.90;;
44985;SDS011;30721;49.380;7.736;2023-12-29T02:06:09;4.15;;;3.05;;
44985;SDS011;30721;49.380;7.736;2023-12-29T02:08:36;6.90;;;3.58;;
44985;SDS011;30721;49.380;7.736;2023-12-29T02:11:02;5.25;;;3.50;;
44985;SDS011;30721;49.380;7.736;2023-12-29T02:13:29;4.50;;;3.25;;
44985;SDS011;30721;49.380;7.736;2023-12-29T02:15:54;5.15;;;3.25;;
44985;SDS011;30721;49.380;7.736;2023-12-29T02:18:25;4.80;;;2.70;;
44985;SDS011;30721;49.380;7.736;2023-12-29T02:20:51;4.13;;;3.20;;
44985;SDS011;30721;49.380;7.736;2023-12-29T02:23:16;3.10;;;2.80;;
44985;SDS011;30721;49.380;7.736;2023-12-29T02:25:45;4.32;;;2.90;;
44985;SDS011;30721;49.380;7.736;2023-12-29T02:30:41;3.67;;;3.00;;
44985;SDS011;30721;49.380;7.736;2023-12-29T02:33:10;4.78;;;3.35;;
44985;SDS011;30721;49.380;7.736;2023-12-29T02:35:39;4.45;;;3.15;;
44985;SDS011;30721;49.380;7.736;2023-12-29T02:38:06;4.85;;;3.70;;
44985;SDS011;30721;49.380;7.736;2023-12-29T02:40:32;4.07;;;3.70;;
44985;SDS011;30721;49.380;7.736;2023-12-29T02:42:57;6.53;;;3.20;;
44985;SDS011;30721;49.380;7.736;2023-12-29T02:45:22;3.78;;;3.17;;
44985;SDS011;30721;49.380;7.736;2023-12-29T02:47:48;4.57;;;3.45;;
44985;SDS011;30721;49.380;7.736;2023-12-29T02:50:14;5.15;;;3.78;;
44985;SDS011;30721;49.380;7.736;2023-12-29T02:52:39;5.22;;;3.78;;
44985;SDS011;30721;49.380;7.736;2023-12-29T02:55:05;4.55;;;3.70;;
44985;SDS011;30721;49.380;7.736;2023-12-29T02:57:30;4.75;;;3.92;;
44985;SDS011;30721;49.380;7.736;2023-12-29T02:59:56;5.10;;;3.60;;
44985;SDS011;30721;49.380;7.736;2023-12-29T03:02:22;4.97;;;3.92;;
44985;SDS011;30721;49.380;7.736;2023-12-29T03:04:48;5.53;;;3.63;;
44985;SDS011;30721;49.380;7.736;2023-12-29T03:07:13;5.82;;;4.15;;
44985;SDS011;30721;49.380;7.736;2023-12-29T03:09:39;5.03;;;4.05;;
44985;SDS011;30721;49.380;7.736;2023-12-29T03:12:04;6.57;;;4.07;;
44985;SDS011;30721;49.380;7.736;2023-12-29T03:14:30;6.28;;;4.38;;
44985;SDS011;30721;49.380;7.736;2023-12-29T03:16:56;5.28;;;3.90;;
44985;SDS011;30721;49.380;7.736;2023-12-29T03:19:22;5.30;;;4.20;;
44985;SDS011;30721;49.380;7.736;2023-12-29T03:21:47;5.00;;;4.28;;
44985;SDS011;30721;49.380;7.736;2023-12-29T03:24:13;4.43;;;3.70;;
44985;SDS011;30721;49.380;7.736;2023-12-29T03:26:38;5.90;;;4.10;;
44985;SDS011;30721;49.380;7.736;2023-12-29T03:29:04;5.53;;;4.15;;
44985;SDS011;30721;49.380;7.736;2023-12-29T03:31:29;6.13;;;3.90;;
44985;SDS011;30721;49.380;7.736;2023-12-29T03:33:55;5.53;;;4.07;;
44985;SDS011;30721;49.380;7.736;2023-12-29T03:36:20;5.75;;;3.60;;
44985;SDS011;30721;49.380;7.736;2023-12-29T03:38:45;5.32;;;3.92;;
44985;SDS011;30721;49.380;7.736;2023-12-29T03:41:11;5.78;;;3.95;;
44985;SDS011;30721;49.380;7.736;2023-12-29T03:43:36;4.85;;;3.60;;
44985;SDS011;30721;49.380;7.736;2023-12-29T03:46:02;6.45;;;3.85;;
44985;SDS011;30721;49.380;7.736;2023-12-29T03:48:27;4.40;;;4.00;;
44985;SDS011;30721;49.380;7.736;2023-12-29T03:50:53;5.80;;;3.88;;
44985;SDS011;30721;49.380;7.736;2023-12-29T03:53:18;4.32;;;3.78;;
44985;SDS011;30721;49.380;7.736;2023-12-29T03:55:44;5.32;;;3.78;;
44985;SDS011;30721;49.380;7.736;2023-12-29T03:58:10;5.28;;;3.60;;
44985;SDS011;30721;49.380;7.736;2023-12-29T04:00:35;6.43;;;3.80;;
44985;SDS011;30721;49.380;7.736;2023-12-29T04:03:01;4.18;;;3.05;;
44985;SDS011;30721;49.380;7.736;2023-12-29T04:05:26;3.72;;;3.25;;
44985;SDS011;30721;49.380;7.736;2023-12-29T04:07:52;5.07;;;3.63;;
44985;SDS011;30721;49.380;7.736;2023-12-29T04:10:17;5.07;;;3.42;;
44985;SDS011;30721;49.380;7.736;2023-12-29T04:12:43;5.20;;;3.70;;
44985;SDS011;30721;49.380;7.736;2023-12-29T04:15:08;5.05;;;3.42;;
44985;SDS011;30721;49.380;7.736;2023-12-29T04:17:34;5.18;;;3.13;;
44985;SDS011;30721;49.380;7.736;2023-12-29T04:19:59;4.53;;;3.22;;
44985;SDS011;30721;49.380;7.736;2023-12-29T04:22:25;5.13;;;3.53;;
44985;SDS011;30721;49.380;7.736;2023-12-29T04:24:50;3.88;;;3.08;;
44985;SDS011;30721;49.380;7.736;2023-12-29T04:27:16;3.88;;;3.22;;
44985;SDS011;30721;49.380;7.736;2023-12-29T04:29:43;5.85;;;3.40;;
44985;SDS011;30721;49.380;7.736;2023-12-29T04:32:09;6.43;;;3.53;;
44985;SDS011;30721;49.380;7.736;2023-12-29T04:34:34;4.13;;;3.22;;
44985;SDS011;30721;49.380;7.736;2023-12-29T04:37:00;3.83;;;3.40;;
44985;SDS011;30721;49.380;7.736;2023-12-29T04:39:25;5.60;;;3.42;;
44985;SDS011;30721;49.380;7.736;2023-12-29T04:41:50;5.93;;;3.53;;
44985;SDS011;30721;49.380;7.736;2023-12-29T04:44:16;4.13;;;3.70;;
44985;SDS011;30721;49.380;7.736;2023-12-29T04:46:41;5.80;;;3.50;;
44985;SDS011;30721;49.380;7.736;2023-12-29T04:49:07;5.63;;;3.78;;
44985;SDS011;30721;49.380;7.736;2023-12-29T04:51:32;4.07;;;3.72;;
44985;SDS011;30721;49.380;7.736;2023-12-29T04:53:58;3.58;;;3.13;;
44985;SDS011;30721;49.380;7.736;2023-12-29T04:56:23;4.70;;;3.78;;
44985;SDS011;30721;49.380;7.736;2023-12-29T04:58:50;3.55;;;3.10;;
44985;SDS011;30721;49.380;7.736;2023-12-29T05:01:16;3.45;;;2.75;;
44985;SDS011;30721;49.380;7.736;2023-12-29T05:03:42;3.42;;;3.10;;
44985;SDS011;30721;49.380;7.736;2023-12-29T05:06:07;3.75;;;3.35;;
44985;SDS011;30721;49.380;7.736;2023-12-29T05:08:32;4.35;;;3.53;;
44985;SDS011;30721;49.380;7.736;2023-12-29T05:10:58;5.10;;;2.97;;
44985;SDS011;30721;49.380;7.736;2023-12-29T05:13:23;5.28;;;2.92;;
44985;SDS011;30721;49.380;7.736;2023-12-29T05:15:49;3.80;;;3.42;;
44985;SDS011;30721;49.380;7.736;2023-12-29T05:18:14;3.17;;;2.55;;
44985;SDS011;30721;49.380;7.736;2023-12-29T05:20:40;3.88;;;3.15;;
44985;SDS011;30721;49.380;7.736;2023-12-29T05:23:05;3.50;;;2.70;;
44985;SDS011;30721;49.380;7.736;2023-12-29T05:25:30;5.43;;;3.22;;
44985;SDS011;30721;49.380;7.736;2023-12-29T05:27:56;4.93;;;3.47;;
44985;SDS011;30721;49.380;7.736;2023-12-29T05:30:21;3.10;;;2.80;;
44985;SDS011;30721;49.380;7.736;2023-12-29T05:32:47;3.92;;;2.65;;
44985;SDS011;30721;49.380;7.736;2023-12-29T05:35:12;2.80;;;2.42;;
44985;SDS011;30721;49.380;7.736;2023-12-29T05:37:38;4.70;;;2.70;;
44985;SDS011;30721;49.380;7.736;2023-12-29T05:40:04;3.83;;;2.83;;
44985;SDS011;30721;49.380;7.736;2023-12-29T05:42:30;3.30;;;3.00;;
44985;SDS011;30721;49.380;7.736;2023-12-29T05:44:55;3.80;;;2.67;;
44985;SDS011;30721;49.380;7.736;2023-12-29T05:47:21;3.13;;;2.70;;
44985;SDS011;30721;49.380;7.736;2023-12-29T05:49:46;4.07;;;2.72;;
44985;SDS011;30721;49.380;7.736;2023-12-29T05:52:11;2.63;;;2.40;;
44985;SDS011;30721;49.380;7.736;2023-12-29T05:54:37;3.72;;;2.55;;
44985;SDS011;30721;49.380;7.736;2023-12-29T05:57:03;2.38;;;2.03;;
44985;SDS011;30721;49.380;7.736;2023-12-29T05:59:28;3.78;;;2.70;;
44985;SDS011;30721;49.380;7.736;2023-12-29T06:01:54;3.60;;;2.55;;
44985;SDS011;30721;49.380;7.736;2023-12-29T06:04:19;3.42;;;1.95;;
44985;SDS011;30721;49.380;7.736;2023-12-29T06:06:45;5.53;;;2.47;;
44985;SDS011;30721;49.380;7.736;2023-12-29T06:09:11;2.60;;;2.25;;
44985;SDS011;30721;49.380;7.736;2023-12-29T06:11:36;3.10;;;2.10;;
44985;SDS011;30721;49.380;7.736;2023-12-29T06:14:03;3.72;;;2.40;;
44985;SDS011;30721;49.380;7.736;2023-12-29T06:16:28;3.25;;;2.50;;
44985;SDS011;30721;49.380;7.736;2023-12-29T06:18:55;4.30;;;2.88;;
44985;SDS011;30721;49.380;7.736;2023-12-29T06:21:20;2.83;;;2.47;;
44985;SDS011;30721;49.380;7.736;2023-12-29T06:23:46;3.05;;;2.20;;
44985;SDS011;30721;49.380;7.736;2023-12-29T06:26:18;3.88;;;2.90;;
44985;SDS011;30721;49.380;7.736;2023-12-29T06:28:44;4.00;;;2.67;;
44985;SDS011;30721;49.380;7.736;2023-12-29T06:31:13;3.42;;;2.50;;
44985;SDS011;30721;49.380;7.736;2023-12-29T06:33:42;3.63;;;3.08;;
44985;SDS011;30721;49.380;7.736;2023-12-29T06:36:08;4.18;;;2.53;;
44985;SDS011;30721;49.380;7.736;2023-12-29T06:38:33;3.28;;;2.72;;
44985;SDS011;30721;49.380;7.736;2023-12-29T06:41:00;3.63;;;2.80;;
44985;SDS011;30721;49.380;7.736;2023-12-29T06:43:27;3.47;;;2.50;;
44985;SDS011;30721;49.380;7.736;2023-12-29T06:45:52;3.83;;;2.75;;
44985;SDS011;30721;49.380;7.736;2023-12-29T06:48:17;3.17;;;1.90;;
44985;SDS011;30721;49.380;7.736;2023-12-29T06:50:43;3.50;;;2.13;;
44985;SDS011;30721;49.380;7.736;2023-12-29T06:53:08;2.40;;;1.90;;
44985;SDS011;30721;49.380;7.736;2023-12-29T06:55:33;2.50;;;1.83;;
44985;SDS011;30721;49.380;7.736;2023-12-29T06:57:59;2.30;;;1.40;;
44985;SDS011;30721;49.380;7.736;2023-12-29T07:00:24;3.33;;;1.63;;
44985;SDS011;30721;49.380;7.736;2023-12-29T07:02:50;3.25;;;1.45;;
44985;SDS011;30721;49.380;7.736;2023-12-29T07:05:15;1.98;;;1.10;;
44985;SDS011;30721;49.380;7.736;2023-12-29T07:07:40;2.83;;;1.27;;
44985;SDS011;30721;49.380;7.736;2023-12-29T07:10:06;2.45;;;1.45;;
44985;SDS011;30721;49.380;7.736;2023-12-29T07:12:32;3.97;;;1.30;;
44985;SDS011;30721;49.380;7.736;2023-12-29T07:14:57;2.97;;;1.45;;
44985;SDS011;30721;49.380;7.736;2023-12-29T07:17:24;2.40;;;1.50;;
44985;SDS011;30721;49.380;7.736;2023-12-29T07:19:50;3.08;;;1.80;;
44985;SDS011;30721;49.380;7.736;2023-12-29T07:22:15;2.75;;;1.95;;
44985;SDS011;30721;49.380;7.736;2023-12-29T07:24:41;3.08;;;1.90;;
44985;SDS011;30721;49.380;7.736;2023-12-29T07:27:06;2.80;;;2.00;;
44985;SDS011;30721;49.380;7.736;2023-12-29T07:29:33;3.35;;;2.15;;
44985;SDS011;30721;49.380;7.736;2023-12-29T07:31:58;3.75;;;1.80;;
44985;SDS011;30721;49.380;7.736;2023-12-29T07:34:24;4.38;;;2.00;;
44985;SDS011;30721;49.380;7.736;2023-12-29T07:36:50;3.15;;;1.70;;
44985;SDS011;30721;49.380;7.736;2023-12-29T07:39:16;3.10;;;1.98;;
44985;SDS011;30721;49.380;7.736;2023-12-29T07:41:42;3.47;;;2.00;;
44985;SDS011;30721;49.380;7.736;2023-12-29T07:44:09;3.42;;;1.73;;
44985;SDS011;30721;49.380;7.736;2023-12-29T07:46:35;4.57;;;1.92;;
44985;SDS011;30721;49.380;7.736;2023-12-29T07:49:01;4.20;;;1.90;;
44985;SDS011;30721;49.380;7.736;2023-12-29T07:51:26;2.30;;;1.60;;
44985;SDS011;30721;49.380;7.736;2023-12-29T07:53:51;2.03;;;1.83;;
44985;SDS011;30721;49.380;7.736;2023-12-29T07:56:17;3.40;;;2.10;;
44985;SDS011;30721;49.380;7.736;2023-12-29T07:58:42;4.10;;;1.98;;
44985;SDS011;30721;49.380;7.736;2023-12-29T08:01:07;2.97;;;2.08;;
44985;SDS011;30721;49.380;7.736;2023-12-29T08:03:34;2.88;;;1.98;;
44985;SDS011;30721;49.380;7.736;2023-12-29T08:05:59;7.28;;;2.30;;
44985;SDS011;30721;49.380;7.736;2023-12-29T08:08:24;4.28;;;2.25;;
44985;SDS011;30721;49.380;7.736;2023-12-29T08:10:50;2.50;;;2.15;;
44985;SDS011;30721;49.380;7.736;2023-12-29T08:13:17;3.88;;;2.85;;
44985;SDS011;30721;49.380;7.736;2023-12-29T08:15:42;3.17;;;2.40;;
44985;SDS011;30721;49.380;7.736;2023-12-29T08:18:08;3.15;;;1.98;;
44985;SDS011;30721;49.380;7.736;2023-12-29T08:20:34;2.30;;;1.95;;
44985;SDS011;30721;49.380;7.736;2023-12-29T08:22:59;2.05;;;1.77;;
44985;SDS011;30721;49.380;7.736;2023-12-29T08:25:28;3.05;;;2.10;;
44985;SDS011;30721;49.380;7.736;2023-12-29T08:27:53;2.33;;;2.05;;
44985;SDS011;30721;49.380;7.736;2023-12-29T08:30:19;2.85;;;2.17;;
44985;SDS011;30721;49.380;7.736;2023-12-29T08:32:44;2.70;;;2.10;;
44985;SDS011;30721;49.380;7.736;2023-12-29T08:35:10;3.17;;;1.90;;
44985;SDS011;30721;49.380;7.736;2023-12-29T08:37:35;2.97;;;1.80;;
44985;SDS011;30721;49.380;7.736;2023-12-29T08:40:00;2.05;;;1.85;;
44985;SDS011;30721;49.380;7.736;2023-12-29T08:42:26;2.55;;;2.25;;
44985;SDS011;30721;49.380;7.736;2023-12-29T08:44:52;3.05;;;2.75;;
44985;SDS011;30721;49.380;7.736;2023-12-29T08:47:18;2.88;;;2.28;;
44985;SDS011;30721;49.380;7.736;2023-12-29T08:49:43;4.88;;;2.05;;
44985;SDS011;30721;49.380;7.736;2023-12-29T08:52:09;2.80;;;2.58;;
44985;SDS011;30721;49.380;7.736;2023-12-29T08:54:34;3.53;;;2.28;;
44985;SDS011;30721;49.380;7.736;2023-12-29T08:57:02;2.35;;;2.15;;
44985;SDS011;30721;49.380;7.736;2023-12-29T08:59:28;2.85;;;2.03;;
44985;SDS011;30721;49.380;7.736;2023-12-29T09:01:53;3.15;;;2.10;;
44985;SDS011;30721;49.380;7.736;2023-12-29T09:04:19;2.55;;;1.80;;
44985;SDS011;30721;49.380;7.736;2023-12-29T09:06:44;4.68;;;2.40;;
44985;SDS011;30721;49.380;7.736;2023-12-29T09:09:09;3.88;;;2.15;;
44985;SDS011;30721;49.380;7.736;2023-12-29T09:11:38;3.28;;;1.88;;
44985;SDS011;30721;49.380;7.736;2023-12-29T09:14:04;1.98;;;1.55;;
44985;SDS011;30721;49.380;7.736;2023-12-29T09:16:29;2.47;;;1.63;;
44985;SDS011;30721;49.380;7.736;2023-12-29T09:18:55;3.08;;;1.55;;
44985;SDS011;30721;49.380;7.736;2023-12-29T09:21:20;2.45;;;1.77;;
44985;SDS011;30721;49.380;7.736;2023-12-29T09:23:46;3.03;;;1.65;;
44985;SDS011;30721;49.380;7.736;2023-12-29T09:26:12;2.90;;;1.40;;
44985;SDS011;30721;49.380;7.736;2023-12-29T09:28:38;2.17;;;1.30;;
44985;SDS011;30721;49.380;7.736;2023-12-29T09:31:07;1.98;;;1.60;;
44985;SDS011;30721;49.380;7.736;2023-12-29T09:33:32;2.30;;;1.30;;
44985;SDS011;30721;49.380;7.736;2023-12-29T09:35:57;2.03;;;1.33;;
44985;SDS011;30721;49.380;7.736;2023-12-29T09:38:23;2.35;;;1.30;;
44985;SDS011;30721;49.380;7.736;2023-12-29T09:40:48;2.22;;;1.60;;
44985;SDS011;30721;49.380;7.736;2023-12-29T09:43:14;2.95;;;1.35;;
44985;SDS011;30721;49.380;7.736;2023-12-29T09:45:39;1.90;;;1.50;;
44985;SDS011;30721;49.380;7.736;2023-12-29T09:48:07;2.72;;;1.60;;
44985;SDS011;30721;49.380;7.736;2023-12-29T09:50:34;3.75;;;1.70;;
44985;SDS011;30721;49.380;7.736;2023-12-29T09:53:02;1.98;;;1.27;;
44985;SDS011;30721;49.380;7.736;2023-12-29T09:55:28;2.65;;;1.80;;
44985;SDS011;30721;49.380;7.736;2023-12-29T09:57:54;2.22;;;1.65;;
44985;SDS011;30721;49.380;7.736;2023-12-29T10:00:20;1.75;;;1.40;;
44985;SDS011;30721;49.380;7.736;2023-12-29T10:02:45;2.78;;;1.60;;
44985;SDS011;30721;49.380;7.736;2023-12-29T10:05:11;1.88;;;1.40;;
44985;SDS011;30721;49.380;7.736;2023-12-29T10:07:36;3.13;;;1.30;;
44985;SDS011;30721;49.380;7.736;2023-12-29T10:10:03;1.90;;;0.98;;
44985;SDS011;30721;49.380;7.736;2023-12-29T10:12:29;4.18;;;1.48;;
44985;SDS011;30721;49.380;7.736;2023-12-29T10:17:46;1.48;;;1.27;;
44985;SDS011;30721;49.380;7.736;2023-12-29T10:20:51;2.10;;;1.27;;
44985;SDS011;30721;49.380;7.736;2023-12-29T10:23:32;1.63;;;1.40;;
44985;SDS011;30721;49.380;7.736;2023-12-29T10:26:01;3.40;;;1.67;;
44985;SDS011;30721;49.380;7.736;2023-12-29T10:28:27;1.52;;;1.17;;
44985;SDS011;30721;49.380;7.736;2023-12-29T10:30:52;3.05;;;1.23;;
44985;SDS011;30721;49.380;7.736;2023-12-29T10:33:21;2.05;;;1.17;;
44985;SDS011;30721;49.380;7.736;2023-12-29T10:36:02;3.92;;;1.30;;
44985;SDS011;30721;49.380;7.736;2023-12-29T10:38:30;3.05;;;1.35;;
44985;SDS011;30721;49.380;7.736;2023-12-29T10:41:09;1.95;;;1.17;;
44985;SDS011;30721;49.380;7.736;2023-12-29T10:43:42;2.28;;;1.30;;
44985;SDS011;30721;49.380;7.736;2023-12-29T10:46:09;3.28;;;1.42;;
44985;SDS011;30721;49.380;7.736;2023-12-29T10:48:35;4.10;;;1.40;;
44985;SDS011;30721;49.380;7.736;2023-12-29T10:51:02;1.85;;;1.67;;
44985;SDS011;30721;49.380;7.736;2023-12-29T10:53:31;1.70;;;1.40;;
44985;SDS011;30721;49.380;7.736;2023-12-29T10:55:57;2.28;;;1.50;;
44985;SDS011;30721;49.380;7.736;2023-12-29T10:58:24;2.55;;;1.38;;
44985;SDS011;30721;49.380;7.736;2023-12-29T11:00:53;1.60;;;1.30;;
44985;SDS011;30721;49.380;7.736;2023-12-29T11:03:19;2.38;;;0.90;;
44985;SDS011;30721;49.380;7.736;2023-12-29T11:05:44;2.28;;;1.17;;
44985;SDS011;30721;49.380;7.736;2023-12-29T11:08:19;2.65;;;1.55;;
44985;SDS011;30721;49.380;7.736;2023-12-29T11:10:47;1.83;;;0.90;;
44985;SDS011;30721;49.380;7.736;2023-12-29T11:13:13;1.85;;;1.10;;
44985;SDS011;30721;49.380;7.736;2023-12-29T11:15:43;1.58;;;0.90;;
44985;SDS011;30721;49.380;7.736;2023-12-29T11:18:13;1.92;;;1.13;;
44985;SDS011;30721;49.380;7.736;2023-12-29T11:20:40;1.65;;;1.15;;
44985;SDS011;30721;49.380;7.736;2023-12-29T11:23:06;1.98;;;1.00;;
44985;SDS011;30721;49.380;7.736;2023-12-29T11:25:33;1.05;;;0.80;;
44985;SDS011;30721;49.380;7.736;2023-12-29T11:27:59;2.35;;;1.45;;
44985;SDS011;30721;49.380;7.736;2023-12-29T11:30:25;2.70;;;1.20;;
44985;SDS011;30721;49.380;7.736;2023-12-29T11:32:53;2.15;;;1.10;;
44985;SDS011;30721;49.380;7.736;2023-12-29T11:35:27;1.63;;;1.20;;
44985;SDS011;30721;49.380;7.736;2023-12-29T11:43:34;1.23;;;0.90;;
44985;SDS011;30721;49.380;7.736;2023-12-29T11:45:59;1.67;;;1.20;;
44985;SDS011;30721;49.380;7.736;2023-12-29T11:51:35;1.48;;;0.98;;
44985;SDS011;30721;49.380;7.736;2023-12-29T11:54:01;1.35;;;1.10;;
44985;SDS011;30721;49.380;7.736;2023-12-29T11:56:31;1.63;;;1.13;;
44985;SDS011;30721;49.380;7.736;2023-12-29T11:59:13;1.13;;;1.00;;
44985;SDS011;30721;49.380;7.736;2023-12-29T12:01:47;2.95;;;1.30;;
44985;SDS011;30721;49.380;7.736;2023-12-29T12:06:58;1.30;;;1.20;;
44985;SDS011;30721;49.380;7.736;2023-12-29T12:09:23;1.42;;;1.08;;
44985;SDS011;30721;49.380;7.736;2023-12-29T12:11:52;1.83;;;1.40;;
44985;SDS011;30721;49.380;7.736;2023-12-29T12:17:30;0.95;;;0.77;;
44985;SDS011;30721;49.380;7.736;2023-12-29T12:19:58;1.10;;;0.90;;
44985;SDS011;30721;49.380;7.736;2023-12-29T12:22:24;2.92;;;1.35;;
44985;SDS011;30721;49.380;7.736;2023-12-29T12:24:57;1.52;;;1.30;;
44985;SDS011;30721;49.380;7.736;2023-12-29T12:27:24;1.25;;;1.15;;
44985;SDS011;30721;49.380;7.736;2023-12-29T12:29:54;1.50;;;1.05;;
44985;SDS011;30721;49.380;7.736;2023-12-29T12:32:22;2.15;;;1.33;;
44985;SDS011;30721;49.380;7.736;2023-12-29T12:34:48;3.00;;;1.40;;
44985;SDS011;30721;49.380;7.736;2023-12-29T12:37:18;1.67;;;1.30;;
44985;SDS011;30721;49.380;7.736;2023-12-29T12:39:47;1.90;;;1.30;;
44985;SDS011;30721;49.380;7.736;2023-12-29T12:42:13;2.08;;;1.40;;
44985;SDS011;30721;49.380;7.736;2023-12-29T12:44:38;2.15;;;1.45;;
44985;SDS011;30721;49.380;7.736;2023-12-29T12:47:06;1.58;;;1.33;;
44985;SDS011;30721;49.380;7.736;2023-12-29T12:49:34;2.22;;;1.52;;
44985;SDS011;30721;49.380;7.736;2023-12-29T12:52:00;2.22;;;1.50;;
44985;SDS011;30721;49.380;7.736;2023-12-29T12:54:25;2.22;;;1.58;;
44985;SDS011;30721;49.380;7.736;2023-12-29T12:56:51;1.80;;;1.52;;
44985;SDS011;30721;49.380;7.736;2023-12-29T12:59:16;2.25;;;1.95;;
44985;SDS011;30721;49.380;7.736;2023-12-29T13:01:42;2.67;;;1.77;;
44985;SDS011;30721;49.380;7.736;2023-12-29T13:04:08;2.42;;;1.90;;
44985;SDS011;30721;49.380;7.736;2023-12-29T13:06:34;2.42;;;1.63;;
44985;SDS011;30721;49.380;7.736;2023-12-29T13:09:05;5.47;;;2.45;;
44985;SDS011;30721;49.380;7.736;2023-12-29T13:11:36;3.65;;;2.13;;
44985;SDS011;30721;49.380;7.736;2023-12-29T13:14:02;1.98;;;1.50;;
44985;SDS011;30721;49.380;7.736;2023-12-29T13:16:33;2.28;;;2.08;;
44985;SDS011;30721;49.380;7.736;2023-12-29T13:19:16;3.08;;;1.98;;
44985;SDS011;30721;49.380;7.736;2023-12-29T13:21:55;2.53;;;1.60;;
44985;SDS011;30721;49.380;7.736;2023-12-29T13:24:24;2.47;;;1.63;;
44985;SDS011;30721;49.380;7.736;2023-12-29T13:26:51;2.17;;;1.73;;
44985;SDS011;30721;49.380;7.736;2023-12-29T13:29:21;1.95;;;1.58;;
44985;SDS011;30721;49.380;7.736;2023-12-29T13:31:49;2.63;;;1.30;;
44985;SDS011;30721;49.380;7.736;2023-12-29T13:34:16;1.88;;;1.70;;
44985;SDS011;30721;49.380;7.736;2023-12-29T13:39:26;2.55;;;1.10;;
44985;SDS011;30721;49.380;7.736;2023-12-29T13:41:55;1.92;;;1.10;;
44985;SDS011;30721;49.380;7.736;2023-12-29T13:44:21;1.73;;;1.02;;
44985;SDS011;30721;49.380;7.736;2023-12-29T13:46:48;2.00;;;1.20;;
44985;SDS011;30721;49.380;7.736;2023-12-29T13:49:13;2.22;;;0.70;;
44985;SDS011;30721;49.380;7.736;2023-12-29T13:51:40;2.38;;;0.98;;
44985;SDS011;30721;49.380;7.736;2023-12-29T13:54:06;1.92;;;0.70;;
44985;SDS011;30721;49.380;7.736;2023-12-29T13:56:31;2.67;;;0.90;;
44985;SDS011;30721;49.380;7.736;2023-12-29T13:58:57;1.85;;;0.90;;
44985;SDS011;30721;49.380;7.736;2023-12-29T14:01:22;2.05;;;0.82;;
44985;SDS011;30721;49.380;7.736;2023-12-29T14:03:54;3.00;;;0.75;;
44985;SDS011;30721;49.380;7.736;2023-12-29T14:06:32;1.70;;;1.00;;
44985;SDS011;30721;49.380;7.736;2023-12-29T14:09:05;1.52;;;1.10;;
44985;SDS011;30721;49.380;7.736;2023-12-29T14:11:31;1.75;;;1.10;;
44985;SDS011;30721;49.380;7.736;2023-12-29T14:13:57;1.48;;;1.30;;
44985;SDS011;30721;49.380;7.736;2023-12-29T14:16:23;1.08;;;0.93;;
44985;SDS011;30721;49.380;7.736;2023-12-29T14:26:34;1.65;;;0.95;;
44985;SDS011;30721;49.380;7.736;2023-12-29T14:29:00;2.63;;;1.10;;
44985;SDS011;30721;49.380;7.736;2023-12-29T14:31:30;1.92;;;0.90;;
44985;SDS011;30721;49.380;7.736;2023-12-29T14:33:57;2.03;;;1.17;;
44985;SDS011;30721;49.380;7.736;2023-12-29T14:36:22;2.13;;;0.88;;
44985;SDS011;30721;49.380;7.736;2023-12-29T14:38:47;2.35;;;0.90;;
44985;SDS011;30721;49.380;7.736;2023-12-29T14:41:13;2.33;;;1.00;;
44985;SDS011;30721;49.380;7.736;2023-12-29T14:43:38;2.25;;;1.15;;
44985;SDS011;30721;49.380;7.736;2023-12-29T14:46:04;2.17;;;0.80;;
44985;SDS011;30721;49.380;7.736;2023-12-29T14:48:29;2.45;;;0.90;;
44985;SDS011;30721;49.380;7.736;2023-12-29T14:50:55;3.75;;;1.50;;
44985;SDS011;30721;49.380;7.736;2023-12-29T14:53:22;1.90;;;0.80;;
44985;SDS011;30721;49.380;7.736;2023-12-29T14:55:48;3.35;;;1.00;;
44985;SDS011;30721;49.380;7.736;2023-12-29T14:58:13;2.92;;;1.05;;
44985;SDS011;30721;49.380;7.736;2023-12-29T15:00:38;1.48;;;0.93;;
44985;SDS011;30721;49.380;7.736;2023-12-29T15:03:04;3.70;;;0.95;;
44985;SDS011;30721;49.380;7.736;2023-12-29T15:05:29;1.58;;;0.80;;
44985;SDS011;30721;49.380;7.736;2023-12-29T15:07:54;2.55;;;0.95;;
44985;SDS011;30721;49.380;7.736;2023-12-29T15:10:20;2.00;;;0.70;;
44985;SDS011;30721;49.380;7.736;2023-12-29T15:12:45;1.67;;;0.60;;
44985;SDS011;30721;49.380;7.736;2023-12-29T15:15:10;2.50;;;0.70;;
44985;SDS011;30721;49.380;7.736;2023-12-29T15:17:36;1.35;;;0.60;;